Las Cruces, NM

11:57 AM MDT on October 17, 2017 (GMT -0600)
Las Cruces International

Weather History for KLRU - March, 2013

Change the Weather History Date:

Saturday, March 16, 2013

  Actual Average Record
Temperature  
Mean Temperature 65 °F -  
Max Temperature 81 °F 66 °F 81 °F (2013)
Min Temperature 49 °F 41 °F 28 °F (2001)
Growing Degree Days 15 (Base 50)    
Moisture  
Dew Point 12 °F    
Average Humidity 14    
Maximum Humidity 22    
Minimum Humidity 7    
Precipitation  
Precipitation 0.00 in - - ()
Sea Level Pressure  
Sea Level Pressure 29.92 in    
Wind  
Wind Speed 11 mph (West)    
Max Wind Speed 28 mph    
Max Gust Speed 38 mph    
Visibility 10 miles    
Events Thunderstorm    
Averages and records for this station are not official NWS values.
T = Trace of Precipitation, MM = Missing Value Source: NWS Daily Summary

Daily Weather History Graph

Daily Weather History Graph

Search for Another Location

Airport or City:

Trip Planner

Search our weather history database for the weather conditions in past years. The results will help you decide how hot, cold, wet, or windy it might be!

Date:

Astronomy

Mar. 16, 2013 Rise Set
Actual Time 7:16 AM MDT 7:16 PM MDT
Civil Twilight 6:51 AM MDT 7:41 PM MDT
Nautical Twilight 6:23 AM MDT 8:09 PM MDT
Astronomical Twilight 5:54 AM MDT 8:38 PM MDT
Moon 10:05 AM MDT (3/16) No Moon Set
Length of Visible Light 12h 49m
Length of Day
12h 00m
Waxing Crescent, 23% of the Moon is Illuminated
Mar 16
Waxing Crescent
Mar 19
First Quarter
Mar 27
Full
Apr 2
Last Quarter
Apr 10
New

Hourly Weather History & Observations

Time (MDT) Temp. Dew Point Humidity Pressure Visibility Wind Dir Wind Speed Gust Speed Precip Events Conditions
12:15 AM 61.3 °F 8.2 °F 12% 29.99 in 10.0 mi SW 3.5 mph - N/A   Clear
12:35 AM 62.1 °F 7.7 °F 12% 30.00 in 10.0 mi SSW 5.8 mph - N/A   Clear
12:55 AM 61.9 °F 7.5 °F 12% 30.00 in 10.0 mi WNW 3.5 mph - N/A   Clear
1:15 AM 59.9 °F 7.5 °F 13% 30.00 in 10.0 mi West 8.1 mph - N/A   Clear
1:35 AM 58.6 °F 7.5 °F 13% 29.99 in 10.0 mi WSW 11.5 mph - N/A   Clear
1:55 AM 59.0 °F 8.1 °F 13% 29.99 in 10.0 mi West 11.5 mph - N/A   Clear
2:15 AM 58.1 °F 8.4 °F 14% 29.99 in 10.0 mi West 12.7 mph - N/A   Clear
2:35 AM 56.5 °F 7.7 °F 14% 29.98 in 10.0 mi West 10.4 mph - N/A   Clear
2:55 AM 52.9 °F 6.6 °F 16% 29.98 in 10.0 mi West 10.4 mph - N/A   Clear
3:15 AM 52.7 °F 6.8 °F 16% 29.97 in 10.0 mi West 9.2 mph - N/A   Clear
3:35 AM 53.6 °F 7.3 °F 16% 29.96 in 10.0 mi WSW 10.4 mph - N/A   Clear
3:55 AM 52.3 °F 7.9 °F 17% 29.96 in 10.0 mi West 11.5 mph - N/A   Clear
4:15 AM 54.1 °F 9.1 °F 17% 29.95 in 10.0 mi West 11.5 mph - N/A   Clear
4:35 AM 54.5 °F 9.5 °F 17% 29.95 in 10.0 mi West 15.0 mph - N/A   Clear
4:55 AM 53.6 °F 9.7 °F 17% 29.95 in 10.0 mi West 12.7 mph - N/A   Clear
5:15 AM 51.3 °F 10.0 °F 19% 29.95 in 10.0 mi West 12.7 mph - N/A   Clear
5:35 AM 51.8 °F 11.7 °F 20% 29.95 in 10.0 mi West 13.8 mph - N/A   Clear
5:55 AM 52.7 °F 12.2 °F 20% 29.95 in 10.0 mi West 16.1 mph - N/A   Clear
6:15 AM 51.8 °F 12.6 °F 21% 29.95 in 10.0 mi West 13.8 mph - N/A   Clear
6:35 AM 49.5 °F 12.0 °F 22% 29.96 in 10.0 mi West 13.8 mph - N/A   Clear
6:55 AM 49.3 °F 12.0 °F 22% 29.97 in 10.0 mi West 12.7 mph - N/A   Clear
7:15 AM 50.0 °F 12.2 °F 22% 29.98 in 10.0 mi West 13.8 mph - N/A   Clear
7:35 AM 49.8 °F 12.0 °F 22% 29.98 in 10.0 mi NW 8.1 mph - N/A   Clear
7:55 AM 50.9 °F 11.3 °F 20% 29.99 in 10.0 mi NW 5.8 mph - N/A   Clear
8:15 AM 51.8 °F 11.1 °F 20% 29.99 in 10.0 mi NE 4.6 mph - N/A   Clear
8:35 AM 54.9 °F 11.3 °F 18% 30.00 in 10.0 mi NW 3.5 mph - N/A   Clear
8:55 AM 58.1 °F 13.3 °F 17% 29.99 in 10.0 mi West 5.8 mph - N/A   Clear
9:15 AM 61.9 °F 14.2 °F 16% 30.00 in 10.0 mi West 11.5 mph - N/A   Clear
9:35 AM 64.0 °F 14.9 °F 15% 30.00 in 10.0 mi West 10.4 mph - N/A   Clear
9:55 AM 65.8 °F 15.3 °F 14% 29.99 in 10.0 mi West 13.8 mph - N/A   Clear
10:15 AM 68.0 °F 15.8 °F 13% 29.99 in 10.0 mi West 11.5 mph - N/A   Clear
10:35 AM 69.6 °F 16.5 °F 13% 29.99 in 10.0 mi West 12.7 mph - N/A   Clear
10:55 AM 70.7 °F 16.7 °F 13% 29.99 in 10.0 mi West 10.4 mph - N/A   Clear
11:15 AM 74.1 °F 17.6 °F 12% 29.98 in 10.0 mi West 16.1 mph - N/A   Clear
11:35 AM 75.0 °F 17.6 °F 11% 29.98 in 10.0 mi West 18.4 mph 21.9 mph N/A   Clear
11:55 AM 75.6 °F 18.0 °F 11% 29.97 in 10.0 mi West 13.8 mph 20.7 mph N/A   Clear
12:15 PM 76.1 °F 18.3 °F 11% 29.96 in 10.0 mi West 21.9 mph 26.5 mph N/A   Clear
12:55 PM 78.3 °F 18.3 °F 11% 29.95 in 10.0 mi WSW 19.6 mph 27.6 mph N/A   Clear
1:15 PM 79.5 °F 14.9 °F 9% 29.93 in 10.0 mi WSW 17.3 mph 28.8 mph N/A   Clear
1:35 PM 80.4 °F 15.6 °F 9% 29.91 in 10.0 mi WSW 24.2 mph 31.1 mph N/A   Clear
1:55 PM 80.1 °F 15.6 °F 9% 29.90 in 10.0 mi West 26.5 mph 32.2 mph N/A   Clear
2:15 PM 80.8 °F 15.6 °F 9% 29.89 in 10.0 mi West 21.9 mph 29.9 mph N/A   Clear
2:35 PM 80.6 °F 16.7 °F 9% 29.88 in 10.0 mi West 20.7 mph 31.1 mph N/A   Clear
2:55 PM 81.1 °F 17.4 °F 9% 29.87 in 10.0 mi WSW 25.3 mph 35.7 mph N/A   Clear
3:15 PM 79.9 °F 15.8 °F 9% 29.86 in 10.0 mi West 26.5 mph 35.7 mph N/A   Clear
3:35 PM 81.0 °F 13.5 °F 8% 29.84 in 10.0 mi WSW 27.6 mph 38.0 mph N/A   Clear
3:55 PM 81.0 °F 14.0 °F 8% 29.84 in 10.0 mi West 18.4 mph 33.4 mph N/A   Clear
4:15 PM 81.1 °F 13.6 °F 8% 29.84 in 10.0 mi WSW 23.0 mph 33.4 mph N/A   Clear
4:35 PM 81.3 °F 13.1 °F 8% 29.84 in 10.0 mi West 24.2 mph 36.8 mph N/A   Clear
4:55 PM 80.6 °F 12.0 °F 7% 29.83 in 10.0 mi WSW 21.9 mph 34.5 mph N/A   Clear
5:15 PM 78.1 °F 12.2 °F 8% 29.83 in 10.0 mi West 25.3 mph 34.5 mph N/A   Clear
5:35 PM 77.4 °F 13.1 °F 9% 29.83 in 10.0 mi West 25.3 mph 33.4 mph N/A   Clear
5:55 PM 76.3 °F 12.7 °F 9% 29.83 in 10.0 mi West 25.3 mph 33.4 mph N/A   Clear
6:15 PM 75.4 °F 11.8 °F 9% 29.84 in 10.0 mi West 20.7 mph 33.4 mph N/A Thunderstorm Thunderstorm
6:35 PM 74.7 °F 14.7 °F 10% 29.84 in 10.0 mi WNW 17.3 mph 26.5 mph N/A   Clear
6:55 PM 74.3 °F 12.9 °F 10% 29.84 in 10.0 mi West 12.7 mph 17.3 mph N/A   Clear
7:15 PM 73.4 °F 12.6 °F 10% 29.84 in 10.0 mi West 13.8 mph - N/A   Clear
7:35 PM 72.3 °F 12.2 °F 10% 29.84 in 10.0 mi West 11.5 mph - N/A   Clear
7:55 PM 70.9 °F 12.7 °F 11% 29.84 in 10.0 mi West 10.4 mph - N/A   Clear
8:15 PM 66.9 °F 12.2 °F 12% 29.86 in 10.0 mi WNW 6.9 mph - N/A   Clear
8:35 PM 64.0 °F 11.5 °F 13% 29.86 in 10.0 mi WNW 6.9 mph - N/A   Clear
8:55 PM 61.0 °F 10.8 °F 14% 29.86 in 10.0 mi WNW 6.9 mph - N/A   Clear
9:15 PM 60.6 °F 10.6 °F 14% 29.87 in 10.0 mi NW 5.8 mph - N/A   Clear
9:35 PM 58.8 °F 10.2 °F 15% 29.87 in 10.0 mi NW 5.8 mph - N/A   Clear
9:55 PM 58.6 °F 10.2 °F 15% 29.88 in 10.0 mi WNW 5.8 mph - N/A   Clear
10:15 PM 57.9 °F 10.2 °F 15% 29.88 in 10.0 mi WNW 5.8 mph - N/A   Clear
10:35 PM 55.4 °F 8.6 °F 15% 29.88 in 10.0 mi West 6.9 mph - N/A   Clear
10:55 PM 55.9 °F 9.5 °F 16% 29.88 in 10.0 mi WNW 5.8 mph - N/A   Clear
11:15 PM 54.9 °F 9.1 °F 16% 29.89 in 10.0 mi NW 9.2 mph - N/A   Clear
11:35 PM 55.0 °F 9.5 °F 16% 29.89 in 10.0 mi NNW 8.1 mph - N/A   Clear
11:55 PM 54.9 °F 10.8 °F 17% 29.89 in 10.0 mi NW 8.1 mph - N/A   Clear